createdAt,value
2022-08-22T00:01:25.777Z,21.90
2022-08-22T00:02:54.564Z,21.92
2022-08-22T00:03:09.862Z,21.91
2022-08-22T00:03:58.379Z,21.87
2022-08-22T00:06:33.355Z,21.87
2022-08-22T00:09:07.814Z,21.86
2022-08-22T00:11:42.639Z,21.85
2022-08-22T00:14:14.767Z,21.84
2022-08-22T00:16:48.115Z,21.77
2022-08-22T00:19:24.562Z,21.80
2022-08-22T00:21:59.458Z,21.86
2022-08-22T00:24:31.313Z,21.86
2022-08-22T00:27:04.381Z,21.87
2022-08-22T00:29:37.394Z,21.89
2022-08-22T00:32:10.348Z,21.85
2022-08-22T00:34:41.590Z,21.87
2022-08-22T00:37:17.103Z,21.87
2022-08-22T00:39:48.907Z,21.85
2022-08-22T00:42:31.680Z,21.85
2022-08-22T00:45:15.304Z,21.85
2022-08-22T00:47:53.677Z,21.78
2022-08-22T00:50:35.257Z,21.78
2022-08-22T00:53:24.686Z,21.76
2022-08-22T00:56:03.906Z,21.74
2022-08-22T00:58:45.707Z,21.72
2022-08-22T01:01:15.266Z,21.69
2022-08-22T01:06:40.743Z,21.55
2022-08-22T01:09:16.265Z,21.50
2022-08-22T01:14:47.624Z,21.49
2022-08-22T01:17:33.747Z,21.46
2022-08-22T01:20:20.763Z,21.32
2022-08-22T01:23:06.668Z,21.12
2022-08-22T01:25:50.885Z,21.02
2022-08-22T01:28:51.856Z,20.98
2022-08-22T01:31:40.988Z,20.95
2022-08-22T01:34:32.995Z,20.97
2022-08-22T01:37:19.753Z,21.01
2022-08-22T01:39:57.581Z,21.02
2022-08-22T01:42:39.499Z,21.03
2022-08-22T01:45:21.602Z,21.06
2022-08-22T01:47:54.351Z,21.06
2022-08-22T01:50:27.269Z,21.14
2022-08-22T01:53:03.840Z,21.14
2022-08-22T01:55:36.018Z,21.10
2022-08-22T01:58:06.144Z,21.11
2022-08-22T02:00:53.208Z,21.14
2022-08-22T02:03:25.553Z,21.19
2022-08-22T02:06:01.207Z,21.22
2022-08-22T02:08:35.113Z,21.24
2022-08-22T02:11:05.429Z,21.25
2022-08-22T02:13:42.627Z,21.31
2022-08-22T02:16:13.044Z,21.33
2022-08-22T02:18:52.110Z,21.23
2022-08-22T02:21:24.657Z,21.21
2022-08-22T02:23:56.239Z,21.15
2022-08-22T02:26:27.198Z,21.15
2022-08-22T02:28:59.799Z,21.23
2022-08-22T02:31:37.710Z,21.27
2022-08-22T02:34:20.109Z,21.28
2022-08-22T02:36:51.763Z,21.27
2022-08-22T02:39:23.082Z,21.29
2022-08-22T02:41:55.646Z,21.32
2022-08-22T02:44:27.822Z,21.33
2022-08-22T02:47:02.646Z,21.34
2022-08-22T02:49:35.093Z,21.36
2022-08-22T02:52:15.410Z,21.35
2022-08-22T02:54:49.000Z,21.33
2022-08-22T02:57:21.566Z,21.32
2022-08-22T03:00:32.072Z,21.33
2022-08-22T03:03:07.497Z,21.37
2022-08-22T03:05:47.406Z,21.42
2022-08-22T03:08:21.099Z,21.43
2022-08-22T03:10:57.283Z,21.47
2022-08-22T03:13:27.376Z,21.52
2022-08-22T03:15:57.925Z,21.57
2022-08-22T03:18:28.508Z,21.53
2022-08-22T03:21:01.175Z,21.58
2022-08-22T03:23:35.899Z,21.60
2022-08-22T03:26:08.250Z,21.64
2022-08-22T03:28:40.137Z,21.66
2022-08-22T03:31:33.810Z,21.72
2022-08-22T03:34:20.491Z,21.71
2022-08-22T03:36:49.898Z,21.74
2022-08-22T03:39:20.692Z,21.79
2022-08-22T03:41:55.065Z,21.82
2022-08-22T03:44:36.974Z,21.88
2022-08-22T03:47:20.193Z,21.91
2022-08-22T03:50:06.983Z,22.00
2022-08-22T03:53:00.419Z,22.05
2022-08-22T03:55:36.244Z,22.13
2022-08-22T03:58:27.567Z,22.22
2022-08-22T04:01:08.611Z,22.33
2022-08-22T04:03:59.018Z,22.39
2022-08-22T04:06:49.574Z,22.46
2022-08-22T04:09:37.204Z,22.54
2022-08-22T04:12:16.944Z,22.58
2022-08-22T04:18:04.917Z,22.52
2022-08-22T04:20:58.608Z,22.59
2022-08-22T04:23:48.582Z,22.54
2022-08-22T04:26:23.602Z,22.62
2022-08-22T04:29:05.891Z,22.60
2022-08-22T04:46:03.642Z,22.59
2022-08-22T04:48:39.729Z,22.66
2022-08-22T04:51:13.639Z,22.74
2022-08-22T04:53:55.121Z,22.82
2022-08-22T04:56:27.763Z,22.84
2022-08-22T04:58:58.565Z,22.85
2022-08-22T05:01:42.368Z,22.81
2022-08-22T05:04:13.024Z,22.75
2022-08-22T05:06:44.967Z,22.80
2022-08-22T05:09:18.845Z,22.86
2022-08-22T05:11:52.927Z,23.03
2022-08-22T05:14:26.301Z,23.25
2022-08-22T05:16:58.276Z,23.45
2022-08-22T05:19:32.037Z,23.64
2022-08-22T05:24:51.633Z,23.97
2022-08-22T05:27:21.833Z,24.18
2022-08-22T05:29:52.871Z,24.28
2022-08-22T05:32:26.245Z,24.50
2022-08-22T05:34:57.584Z,24.68
2022-08-22T05:37:28.396Z,24.86
2022-08-22T05:39:59.355Z,24.99
2022-08-22T05:42:30.123Z,25.14
2022-08-22T05:44:58.709Z,25.24
2022-08-22T05:47:36.969Z,25.34
2022-08-22T05:50:07.234Z,25.46
2022-08-22T05:55:47.798Z,25.65
2022-08-22T05:58:34.099Z,25.72
2022-08-22T06:01:09.190Z,25.71
2022-08-22T06:03:40.837Z,25.68
2022-08-22T06:06:12.223Z,25.67
2022-08-22T06:08:44.260Z,25.69
2022-08-22T06:11:18.141Z,25.79
2022-08-22T06:14:40.121Z,25.86
2022-08-22T06:17:12.806Z,25.95
2022-08-22T06:19:49.570Z,26.04
2022-08-22T06:22:22.023Z,26.16
2022-08-22T06:25:08.519Z,26.19
2022-08-22T06:27:38.066Z,26.27
2022-08-22T06:30:15.195Z,26.33
2022-08-22T06:36:21.268Z,26.45
2022-08-22T06:39:05.877Z,26.51
2022-08-22T06:41:47.927Z,26.53
2022-08-22T06:44:21.717Z,26.40
2022-08-22T06:59:27.230Z,27.23
2022-08-22T07:02:17.629Z,27.66
2022-08-22T07:05:30.141Z,28.09
2022-08-22T07:08:07.257Z,28.31
2022-08-22T07:16:38.044Z,28.33
2022-08-22T07:19:11.568Z,28.46
2022-08-22T07:21:50.199Z,28.49
2022-08-22T07:24:40.234Z,28.49
2022-08-22T07:27:44.407Z,28.45
2022-08-22T07:30:34.735Z,28.46
2022-08-22T07:33:26.423Z,28.51
2022-08-22T07:36:04.429Z,28.69
2022-08-22T07:38:45.873Z,28.84
2022-08-22T07:41:20.969Z,29.14
2022-08-22T07:44:06.494Z,29.40
2022-08-22T07:47:06.456Z,29.64
2022-08-22T07:49:37.500Z,29.74
2022-08-22T07:52:11.280Z,29.79
2022-08-22T07:54:43.723Z,29.79
2022-08-22T07:57:15.473Z,29.81
2022-08-22T07:59:48.290Z,29.83
2022-08-22T08:02:19.866Z,29.82
2022-08-22T08:08:15.728Z,29.87
2022-08-22T08:10:55.022Z,30.02
2022-08-22T08:13:44.540Z,30.01
2022-08-22T08:16:20.295Z,30.16
2022-08-22T08:18:50.911Z,30.21
2022-08-22T08:21:29.125Z,30.26
2022-08-22T08:24:00.439Z,30.36
2022-08-22T08:26:32.504Z,30.51
2022-08-22T08:29:00.223Z,30.49
2022-08-22T08:31:32.140Z,30.56
2022-08-22T08:34:05.327Z,30.69
2022-08-22T08:36:39.742Z,30.56
2022-08-22T08:39:16.932Z,30.67
2022-08-22T08:42:09.736Z,30.73
2022-08-22T08:44:57.663Z,30.82
2022-08-22T08:50:55.808Z,31.33
2022-08-22T08:53:48.610Z,31.48
2022-08-22T08:56:47.243Z,31.61
2022-08-22T08:59:30.688Z,31.62
2022-08-22T09:02:23.445Z,31.66
2022-08-22T09:05:11.221Z,31.81
2022-08-22T09:07:55.590Z,32.16
2022-08-22T09:10:34.923Z,32.39
2022-08-22T09:13:14.817Z,32.61
2022-08-22T09:15:59.752Z,32.99
2022-08-22T09:18:54.331Z,33.13
2022-08-22T09:21:35.017Z,33.34
2022-08-22T09:24:20.730Z,33.50
2022-08-22T09:26:53.794Z,33.78
2022-08-22T09:29:54.691Z,33.84
2022-08-22T09:32:34.640Z,34.00
2022-08-22T09:35:07.636Z,33.95
2022-08-22T09:37:42.616Z,33.92
2022-08-22T09:40:18.935Z,33.75
2022-08-22T09:42:56.150Z,33.81
2022-08-22T09:45:43.177Z,33.89
2022-08-22T10:00:15.086Z,34.26
2022-08-22T10:02:50.266Z,34.20
2022-08-22T10:05:40.380Z,34.33
2022-08-22T10:08:30.868Z,34.38
2022-08-22T10:11:13.075Z,34.59
2022-08-22T10:13:48.286Z,35.07
2022-08-22T10:16:30.040Z,35.55
2022-08-22T10:19:16.981Z,36.19
2022-08-22T10:24:43.940Z,37.53
2022-08-22T10:27:15.962Z,37.56
2022-08-22T10:29:53.698Z,37.78
2022-08-22T10:32:29.432Z,38.12
2022-08-22T10:35:01.158Z,38.46
2022-08-22T10:37:34.009Z,38.98
2022-08-22T10:40:07.059Z,39.36
2022-08-22T10:42:39.196Z,40.18
2022-08-22T10:45:23.718Z,41.11
2022-08-22T10:50:55.760Z,42.46
2022-08-22T10:53:34.983Z,42.77
2022-08-22T10:56:22.591Z,43.34
2022-08-22T10:59:06.147Z,43.79
2022-08-22T11:01:41.933Z,44.10
2022-08-22T11:04:15.751Z,43.86
2022-08-22T11:06:46.894Z,44.03
2022-08-22T11:09:28.041Z,43.95
2022-08-22T11:12:02.963Z,43.84
2022-08-22T11:14:48.617Z,43.96
2022-08-22T11:17:32.430Z,44.35
2022-08-22T11:20:09.852Z,45.10
2022-08-22T11:23:12.683Z,45.23
2022-08-22T11:29:20.510Z,44.66
2022-08-22T11:32:06.117Z,45.28
2022-08-22T11:34:48.342Z,45.48
2022-08-22T11:37:43.457Z,44.99
2022-08-22T11:40:23.221Z,44.47
2022-08-22T11:48:57.424Z,41.71
2022-08-22T11:51:37.481Z,41.43
2022-08-22T11:54:09.987Z,41.34
2022-08-22T11:56:49.499Z,40.96
2022-08-22T11:59:26.907Z,40.10
2022-08-22T12:02:08.766Z,39.49
2022-08-22T12:04:58.784Z,39.17
2022-08-22T12:10:38.323Z,37.67
2022-08-22T12:16:27.041Z,36.93
2022-08-22T12:40:26.101Z,35.19
2022-08-22T12:59:23.748Z,35.49
2022-08-22T13:02:27.260Z,35.77
2022-08-22T13:11:23.581Z,36.86
2022-08-22T13:13:56.397Z,36.72
2022-08-22T13:16:27.088Z,36.59
2022-08-22T13:18:57.499Z,36.41
2022-08-22T13:24:38.422Z,35.73
2022-08-22T13:27:13.093Z,35.73
2022-08-22T13:29:47.133Z,35.73
2022-08-22T13:32:21.101Z,35.53
2022-08-22T13:34:54.897Z,35.27
2022-08-22T13:37:24.903Z,34.95
2022-08-22T13:40:00.522Z,34.72
2022-08-22T13:42:33.173Z,34.36
2022-08-22T13:45:05.852Z,34.10
2022-08-22T13:47:40.622Z,33.87
2022-08-22T13:55:57.592Z,33.27
2022-08-22T14:07:00.477Z,32.62
2022-08-22T14:09:42.127Z,32.48
2022-08-22T14:12:14.633Z,32.44
2022-08-22T14:14:46.184Z,32.32
2022-08-22T14:17:19.982Z,32.19
2022-08-22T14:19:58.996Z,32.07
2022-08-22T14:22:31.661Z,31.97
2022-08-22T14:25:07.272Z,31.86
2022-08-22T14:27:40.338Z,31.74
2022-08-22T14:30:14.993Z,31.63
2022-08-22T14:32:46.345Z,31.55
2022-08-22T14:35:23.274Z,31.43
2022-08-22T14:38:17.536Z,31.36
2022-08-22T14:40:47.235Z,31.26
2022-08-22T14:43:22.514Z,31.23
2022-08-22T14:45:57.738Z,31.19
2022-08-22T14:48:37.542Z,31.15
2022-08-22T14:51:12.089Z,31.11
2022-08-22T14:53:41.736Z,31.05
2022-08-22T14:56:12.880Z,31.02
2022-08-22T14:58:51.206Z,30.93
2022-08-22T15:01:21.853Z,30.85
2022-08-22T15:03:54.255Z,30.79
2022-08-22T15:06:31.783Z,30.77
2022-08-22T15:09:07.996Z,30.72
2022-08-22T15:11:42.371Z,30.69
2022-08-22T15:14:16.400Z,30.67
2022-08-22T15:16:48.098Z,30.52
2022-08-22T15:19:25.134Z,30.53
2022-08-22T15:22:06.576Z,30.50
2022-08-22T15:24:41.483Z,30.48
2022-08-22T15:27:11.818Z,30.45
2022-08-22T15:29:50.069Z,30.35
2022-08-22T15:32:22.717Z,30.27
2022-08-22T15:34:59.575Z,30.16
2022-08-22T15:37:32.432Z,30.03
2022-08-22T15:40:12.150Z,29.86
2022-08-22T15:42:42.469Z,29.66
2022-08-22T15:45:22.329Z,29.45
2022-08-22T15:47:52.290Z,29.39
2022-08-22T15:50:35.810Z,29.29
2022-08-22T15:53:20.276Z,29.17
2022-08-22T15:56:07.312Z,29.12
2022-08-22T15:58:37.707Z,29.02
2022-08-22T16:01:18.806Z,28.95
2022-08-22T16:03:55.823Z,28.82
2022-08-22T16:06:38.830Z,28.77
2022-08-22T16:09:29.552Z,28.70
2022-08-22T16:11:58.967Z,28.66
2022-08-22T16:14:59.141Z,28.63
2022-08-22T16:17:43.143Z,28.55
2022-08-22T16:20:29.758Z,28.46
2022-08-22T16:23:09.381Z,28.39
2022-08-22T16:26:00.174Z,28.32
2022-08-22T16:28:56.304Z,28.22
2022-08-22T16:31:21.616Z,28.14
2022-08-22T16:33:51.375Z,28.09
2022-08-22T16:36:39.295Z,28.00
2022-08-22T16:39:10.788Z,27.90
2022-08-22T16:41:42.196Z,27.80
2022-08-22T16:44:14.940Z,27.71
2022-08-22T16:46:46.675Z,27.62
2022-08-22T16:49:28.382Z,27.50
2022-08-22T16:52:17.745Z,27.40
2022-08-22T16:54:46.783Z,27.26
2022-08-22T16:57:22.490Z,27.13
2022-08-22T17:00:07.393Z,27.01
2022-08-22T17:02:59.472Z,26.89
2022-08-22T17:05:42.487Z,26.79
2022-08-22T17:08:26.597Z,26.72
2022-08-22T17:11:01.423Z,26.64
2022-08-22T17:13:41.865Z,26.61
2022-08-22T17:16:18.596Z,26.56
2022-08-22T17:18:51.784Z,26.52
2022-08-22T17:21:26.189Z,26.50
2022-08-22T17:24:01.814Z,26.48
2022-08-22T17:26:37.445Z,26.48
2022-08-22T17:29:11.321Z,26.54
2022-08-22T17:31:49.271Z,26.52
2022-08-22T17:34:29.152Z,26.52
2022-08-22T17:37:05.364Z,26.50
2022-08-22T17:39:54.575Z,26.52
2022-08-22T17:42:45.176Z,26.50
2022-08-22T17:45:20.455Z,26.49
2022-08-22T17:47:54.602Z,26.44
2022-08-22T17:50:26.833Z,26.38
2022-08-22T17:53:01.055Z,26.34
2022-08-22T17:55:33.751Z,26.25
2022-08-22T17:58:10.353Z,26.19
2022-08-22T18:00:42.373Z,26.11
2022-08-22T18:03:16.812Z,26.07
2022-08-22T18:09:13.483Z,25.93
2022-08-22T18:11:24.193Z,25.87
2022-08-22T18:13:56.308Z,25.82
2022-08-22T18:16:29.331Z,25.79
2022-08-22T18:19:02.096Z,25.77
2022-08-22T18:21:33.279Z,25.71
2022-08-22T18:24:06.472Z,25.69
2022-08-22T18:26:37.787Z,25.67
2022-08-22T18:29:10.880Z,25.65
2022-08-22T18:31:45.817Z,25.64
2022-08-22T18:34:26.938Z,25.63
2022-08-22T18:36:59.308Z,25.63
2022-08-22T18:39:32.509Z,25.64
2022-08-22T18:45:54.196Z,25.62
2022-08-22T18:48:28.586Z,25.62
2022-08-22T18:51:22.443Z,25.59
2022-08-22T18:53:55.361Z,25.61
2022-08-22T18:56:39.393Z,25.62
2022-08-22T18:59:13.162Z,25.63
2022-08-22T19:01:51.520Z,25.64
2022-08-22T19:04:30.518Z,25.67
2022-08-22T19:07:14.208Z,25.68
2022-08-22T19:10:01.202Z,25.70
2022-08-22T19:12:46.946Z,25.70
2022-08-22T19:15:25.563Z,25.67
2022-08-22T19:18:11.567Z,25.66
2022-08-22T19:20:58.597Z,25.64
2022-08-22T19:23:48.823Z,25.63
2022-08-22T19:26:25.030Z,25.60
2022-08-22T19:28:53.694Z,25.57
2022-08-22T19:31:26.026Z,25.52
2022-08-22T19:34:09.143Z,25.52
2022-08-22T19:36:37.584Z,25.50
2022-08-22T19:39:08.829Z,25.50
2022-08-22T19:41:42.912Z,25.50
2022-08-22T19:44:11.782Z,25.49
2022-08-22T19:46:43.069Z,25.46
2022-08-22T19:49:25.577Z,25.40
2022-08-22T19:52:04.704Z,25.41
2022-08-22T19:54:34.044Z,25.37
2022-08-22T19:57:07.544Z,25.34
2022-08-22T19:59:51.166Z,25.31
2022-08-22T20:02:27.600Z,25.27
2022-08-22T20:05:04.914Z,25.23
2022-08-22T20:07:39.523Z,25.19
2022-08-22T20:10:16.725Z,25.13
2022-08-22T20:12:51.844Z,25.11
2022-08-22T20:15:23.333Z,25.06
2022-08-22T20:20:58.393Z,24.96
2022-08-22T20:23:28.599Z,24.90
2022-08-22T20:25:57.297Z,24.86
2022-08-22T20:28:37.722Z,24.81
2022-08-22T20:31:07.645Z,24.79
2022-08-22T20:33:38.509Z,24.75
2022-08-22T20:36:18.514Z,24.71
2022-08-22T20:39:00.322Z,24.70
2022-08-22T20:41:35.702Z,24.66
2022-08-22T20:44:07.155Z,24.66
2022-08-22T20:50:31.639Z,24.65
2022-08-22T20:53:37.840Z,24.64
2022-08-22T20:56:24.340Z,24.64
2022-08-22T20:59:12.784Z,24.63
2022-08-22T21:01:47.853Z,24.66
2022-08-22T21:04:44.200Z,24.62
2022-08-22T21:07:28.155Z,24.63
2022-08-22T21:10:16.743Z,24.63
2022-08-22T21:13:05.673Z,24.58
2022-08-22T21:15:34.829Z,24.56
2022-08-22T21:18:03.096Z,24.52
2022-08-22T21:20:34.512Z,24.48
2022-08-22T21:23:05.320Z,24.42
2022-08-22T21:25:34.115Z,24.36
2022-08-22T21:28:02.215Z,24.31
2022-08-22T21:30:30.827Z,24.27
2022-08-22T21:32:59.072Z,24.21
2022-08-22T21:35:29.572Z,24.16
2022-08-22T21:37:58.357Z,24.09
2022-08-22T21:40:31.497Z,24.06
2022-08-22T21:43:01.177Z,24.02
2022-08-22T21:45:31.513Z,23.99
2022-08-22T21:48:00.134Z,23.96
2022-08-22T21:50:31.903Z,23.91
2022-08-22T21:53:05.195Z,23.87
2022-08-22T21:55:42.973Z,23.85
2022-08-22T21:58:13.402Z,23.82
2022-08-22T22:01:04.269Z,23.80
2022-08-22T22:03:37.533Z,23.76
2022-08-22T22:06:07.059Z,23.74
2022-08-22T22:08:35.183Z,23.72
2022-08-22T22:11:08.517Z,23.72
2022-08-22T22:13:36.787Z,23.70
2022-08-22T22:16:07.766Z,23.70
2022-08-22T22:18:37.223Z,23.70
2022-08-22T22:21:05.479Z,23.69
2022-08-22T22:23:33.698Z,23.69
2022-08-22T22:26:03.147Z,23.67
2022-08-22T22:28:33.693Z,23.68
2022-08-22T22:31:01.988Z,23.67
2022-08-22T22:33:31.686Z,23.66
2022-08-22T22:36:01.277Z,23.64
2022-08-22T22:38:29.670Z,23.61
2022-08-22T22:40:58.392Z,23.62
2022-08-22T22:43:27.756Z,23.61
2022-08-22T22:45:57.520Z,23.60
2022-08-22T22:48:25.901Z,23.58
2022-08-22T22:50:54.329Z,23.58
2022-08-22T22:53:33.805Z,23.58
2022-08-22T22:56:09.530Z,23.56
2022-08-22T22:58:38.056Z,23.56
2022-08-22T23:01:10.108Z,23.56
2022-08-22T23:03:38.474Z,23.55
2022-08-22T23:06:11.401Z,23.53
2022-08-22T23:08:39.884Z,23.52
2022-08-22T23:11:10.658Z,23.50
2022-08-22T23:13:39.646Z,23.47
2022-08-22T23:16:13.605Z,23.46
2022-08-22T23:18:41.778Z,23.46
2022-08-22T23:21:14.245Z,23.42
2022-08-22T23:23:42.567Z,23.40
2022-08-22T23:26:11.502Z,23.37
2022-08-22T23:28:40.151Z,23.36
2022-08-22T23:31:14.062Z,23.34
2022-08-22T23:33:42.490Z,23.33
2022-08-22T23:36:12.199Z,23.30
2022-08-22T23:38:40.427Z,23.31
2022-08-22T23:41:09.933Z,23.30
2022-08-22T23:43:41.819Z,23.30
2022-08-22T23:46:10.004Z,23.31
2022-08-22T23:48:40.308Z,23.28
2022-08-22T23:51:09.108Z,23.27
2022-08-22T23:53:37.890Z,23.28
2022-08-22T23:56:19.621Z,23.27
2022-08-22T23:58:49.023Z,23.27
